Time;durP1;ratioP1;P1;durP2;ratioP2;P2;SDS_P1;SDS_P2;PMS_P1;PMS_P2;Temp;Humidity;BMP_temperature;BMP_pressure;BME280_temperature;BME280_humidity;BME280_pressure;Samples;Min_cycle;Max_cycle;Signal;HPM_P1;HPM_P2
2022/01/29 00:01:32;;;;;;;;;;;;;;;2.84;59.33;100756.03;4469266;32;20242;-82
2022/01/29 00:03:57;;;;;;;;;;;;;;;3.02;59.34;100750.25;4469383;32;20031;-82
2022/01/29 00:06:22;;;;;;;;;;;;;;;3.01;59.34;100751.09;4469019;32;20015;-81
2022/01/29 00:08:47;;;;;;;;;;;;;;;3.05;59.35;100764.03;4453844;32;19996;-81
2022/01/29 00:11:15;;;;;;;;;;;;;;;3.03;59.35;100758.00;4453848;32;20304;-80
2022/01/29 00:13:40;;;;;;;;;;;;;;;3.08;59.34;100763.22;4454229;32;20052;-82
2022/01/29 00:16:05;;;;;;;;;;;;;;;3.04;59.35;100766.56;4441814;32;19981;-82
2022/01/29 00:18:31;;;;;;;;;;;;;;;3.12;59.35;100764.12;4469081;32;20298;-82
2022/01/29 00:20:56;;;;;;;;;;;;;;;3.16;59.35;100773.63;4468826;32;20027;-82
2022/01/29 00:23:22;;;;;;;;;;;;;;;3.16;59.35;100773.63;4454501;32;20008;-82
2022/01/29 00:25:47;;;;;;;;;;;;;;;3.17;59.36;100789.06;4468342;32;27391;-83
2022/01/29 00:28:13;;;;;;;;;;;;;;;3.02;59.34;100773.41;4468091;32;29626;-82
2022/01/29 00:30:42;;;;;;;;;;;;;;;3.05;59.35;100782.03;4454142;32;20032;-81
2022/01/29 00:33:07;;;;;;;;;;;;;;;3.24;59.35;100774.59;4469006;32;19988;-81
2022/01/29 00:35:32;;;;;;;;;;;;;;;2.97;59.34;100770.78;4468960;32;20283;-83
2022/01/29 00:37:58;;;;;;;;;;;;;;;2.95;59.35;100781.88;4468342;32;25453;-82
2022/01/29 00:40:23;;;;;;;;;;;;;;;2.77;59.33;100777.31;4468699;32;20329;-83
2022/01/29 00:42:49;;;;;;;;;;;;;;;2.75;59.33;100769.56;4468817;32;20281;-82
2022/01/29 00:45:14;;;;;;;;;;;;;;;2.80;59.32;100786.78;4454608;32;20307;-83
2022/01/29 00:47:39;;;;;;;;;;;;;;;2.98;59.34;100782.78;4468909;32;19960;-82
2022/01/29 00:50:05;;;;;;;;;;;;;;;2.99;59.34;100775.94;4468805;32;20008;-82
2022/01/29 00:52:30;;;;;;;;;;;;;;;2.83;59.33;100792.81;4454409;32;20017;-82
2022/01/29 00:54:55;;;;;;;;;;;;;;;2.74;59.33;100782.41;4468949;32;20745;-82
2022/01/29 00:57:21;;;;;;;;;;;;;;;2.74;59.33;100784.97;4468300;32;20706;-82
2022/01/29 00:59:46;;;;;;;;;;;;;;;2.91;59.34;100787.81;4468796;32;19984;-82
2022/01/29 01:02:13;;;;;;;;;;;;;;;2.97;59.34;100790.47;4468427;32;28722;-82
2022/01/29 01:04:39;;;;;;;;;;;;;;;2.95;59.33;100792.16;4469330;32;20069;-83
2022/01/29 01:07:04;;;;;;;;;;;;;;;2.87;59.33;100799.78;4454595;32;19976;-82
2022/01/29 01:09:29;;;;;;;;;;;;;;;2.59;59.32;100806.13;4454480;32;20000;-82
2022/01/29 01:11:54;;;;;;;;;;;;;;;2.58;59.33;100799.28;4454517;32;19984;-82
2022/01/29 01:14:20;;;;;;;;;;;;;;;2.54;59.31;100794.91;4468171;32;28602;-82
2022/01/29 01:16:45;;;;;;;;;;;;;;;2.46;59.31;100801.66;4468919;32;20003;-82
2022/01/29 01:19:10;;;;;;;;;;;;;;;2.57;59.32;100815.53;4468343;32;29819;-82
2022/01/29 01:21:35;;;;;;;;;;;;;;;2.55;59.32;100806.94;4468374;32;26731;-82
2022/01/29 01:24:00;;;;;;;;;;;;;;;2.62;59.32;100810.50;4468149;32;29753;-82
2022/01/29 01:26:26;;;;;;;;;;;;;;;2.53;59.32;100813.75;4468547;32;19983;-82
2022/01/29 01:28:51;;;;;;;;;;;;;;;2.62;59.32;100811.34;4453382;32;31935;-82
2022/01/29 01:31:16;;;;;;;;;;;;;;;2.53;59.32;100818.88;4468465;32;19992;-83
2022/01/29 01:33:43;;;;;;;;;;;;;;;2.55;59.32;100821.47;4468121;32;19988;-83
2022/01/29 01:36:08;;;;;;;;;;;;;;;2.52;59.32;100821.44;4468605;32;20037;-82
2022/01/29 01:38:44;;;;;;;;;;;;;;;2.42;59.32;100823.84;4468671;32;19984;-82
2022/01/29 01:41:14;;;;;;;;;;;;;;;2.42;59.31;100810.13;4468256;32;20040;-82
2022/01/29 01:43:39;;;;;;;;;;;;;;;2.37;59.31;100811.78;4468446;32;20821;-82
2022/01/29 01:46:04;;;;;;;;;;;;;;;2.23;59.30;100820.91;4468089;32;20355;-82
2022/01/29 01:48:29;;;;;;;;;;;;;;;2.34;59.30;100814.25;4468313;32;20339;-82
2022/01/29 01:50:55;;;;;;;;;;;;;;;2.31;59.31;100801.34;4468484;32;19996;-82
2022/01/29 01:53:20;;;;;;;;;;;;;;;2.15;59.30;100800.22;4468414;32;19973;-82
2022/01/29 01:55:46;;;;;;;;;;;;;;;2.22;59.30;100796.94;4467980;32;26050;-82
2022/01/29 01:58:11;;;;;;;;;;;;;;;2.18;59.30;100795.16;4468309;32;20160;-82
2022/01/29 02:00:37;;;;;;;;;;;;;;;2.28;59.31;100812.44;4467591;32;32340;-82
2022/01/29 02:03:02;;;;;;;;;;;;;;;2.29;59.31;100806.47;4467513;32;31831;-83
2022/01/29 02:05:27;;;;;;;;;;;;;;;2.17;59.30;100801.12;4453351;32;29750;-82
2022/01/29 02:07:52;;;;;;;;;;;;;;;2.26;59.30;100798.72;4453831;32;20004;-82
2022/01/29 02:10:19;;;;;;;;;;;;;;;2.16;59.30;100807.09;4468250;32;20000;-82
2022/01/29 02:12:44;;;;;;;;;;;;;;;2.46;59.31;100796.50;4453876;32;19985;-82
2022/01/29 02:15:10;;;;;;;;;;;;;;;2.34;59.30;100807.41;4468179;32;20033;-83
2022/01/29 02:17:35;;;;;;;;;;;;;;;2.46;59.31;100812.78;4453763;32;20383;-83
2022/01/29 02:20:01;;;;;;;;;;;;;;;2.27;59.30;100804.72;4468244;32;20047;-83
2022/01/29 02:22:26;;;;;;;;;;;;;;;2.41;59.31;100810.97;4468388;32;19973;-83
2022/01/29 02:24:51;;;;;;;;;;;;;;;2.36;59.31;100810.88;4455300;32;26544;-83
2022/01/29 02:27:16;;;;;;;;;;;;;;;2.42;59.32;100803.28;4469464;32;29280;-83
2022/01/29 02:29:44;;;;;;;;;;;;;;;2.39;59.31;100812.66;4454874;32;33910;-83
2022/01/29 02:32:09;;;;;;;;;;;;;;;2.55;59.32;100806.94;4470039;32;20364;-83
2022/01/29 02:34:34;;;;;;;;;;;;;;;2.71;59.33;100810.63;4470036;32;20012;-83
2022/01/29 02:37:00;;;;;;;;;;;;;;;2.49;59.31;100801.69;4469895;32;20301;-83
2022/01/29 02:39:25;;;;;;;;;;;;;;;2.63;59.32;100813.09;4470017;32;20037;-83
2022/01/29 02:41:51;;;;;;;;;;;;;;;2.70;59.32;100812.34;4469853;32;19981;-83
2022/01/29 02:44:20;;;;;;;;;;;;;;;2.64;59.32;100813.97;4442621;32;20000;-83
2022/01/29 02:46:50;;;;;;;;;;;;;;;2.76;59.33;100816.72;4469853;32;20293;-83
2022/01/29 02:49:16;;;;;;;;;;;;;;;2.91;59.34;100805.81;4455491;32;20385;-83
2022/01/29 02:51:48;;;;;;;;;;;;;;;2.89;59.34;100821.22;4455513;32;19981;-84
2022/01/29 02:54:14;;;;;;;;;;;;;;;2.88;59.34;100816.06;4469845;32;20325;-83
2022/01/29 02:56:39;;;;;;;;;;;;;;;2.75;59.33;100818.41;4454951;32;22839;-83
2022/01/29 02:59:04;;;;;;;;;;;;;;;2.71;59.33;100813.22;4455446;32;20000;-84
2022/01/29 03:01:29;;;;;;;;;;;;;;;2.67;59.33;100811.44;4469427;32;19988;-85
2022/01/29 03:03:55;;;;;;;;;;;;;;;2.68;59.33;100813.16;4469860;32;19981;-85
2022/01/29 03:06:21;;;;;;;;;;;;;;;2.51;59.32;100815.44;4455480;32;20346;-85
2022/01/29 03:08:46;;;;;;;;;;;;;;;2.41;59.30;100809.28;4469375;32;27641;-83
2022/01/29 03:11:11;;;;;;;;;;;;;;;2.32;59.31;100810.78;4469222;32;32101;-83
2022/01/29 03:13:36;;;;;;;;;;;;;;;2.41;59.31;100816.13;4469028;32;30933;-84
2022/01/29 03:16:02;;;;;;;;;;;;;;;2.58;59.33;100817.25;4455048;32;20057;-84
2022/01/29 03:18:27;;;;;;;;;;;;;;;2.42;59.30;100830.69;4442423;32;20040;-84
2022/01/29 03:20:52;;;;;;;;;;;;;;;2.45;59.32;100836.75;4454707;32;30329;-84
2022/01/29 03:23:17;;;;;;;;;;;;;;;2.62;59.32;100839.63;4454642;32;27819;-83
2022/01/29 03:25:42;;;;;;;;;;;;;;;2.45;59.32;100843.59;4468944;32;28294;-83
2022/01/29 03:28:08;;;;;;;;;;;;;;;2.73;59.33;100839.81;4442268;32;20056;-82
2022/01/29 03:30:33;;;;;;;;;;;;;;;2.74;59.33;100844.97;4441444;32;30943;-82
2022/01/29 03:32:58;;;;;;;;;;;;;;;2.68;59.33;100850.00;4468854;32;27641;-83
2022/01/29 03:35:23;;;;;;;;;;;;;;;2.69;59.32;100850.87;4453545;32;32185;-83
2022/01/29 03:37:48;;;;;;;;;;;;;;;2.76;59.33;100845.00;4468820;32;30173;-82
2022/01/29 03:40:14;;;;;;;;;;;;;;;2.95;59.35;100851.31;4469094;32;20192;-82
2022/01/29 03:42:45;;;;;;;;;;;;;;;2.98;59.34;100856.50;4455237;32;19992;-82
2022/01/29 03:45:10;;;;;;;;;;;;;;;3.15;59.35;100844.78;4469487;32;20040;-82
2022/01/29 03:47:35;;;;;;;;;;;;;;;3.05;59.35;100848.03;4469526;32;19988;-82
2022/01/29 03:50:01;;;;;;;;;;;;;;;2.86;59.33;100848.59;4455266;32;19992;-82
2022/01/29 03:52:26;;;;;;;;;;;;;;;2.97;59.35;100849.63;4454458;32;34298;-82
2022/01/29 03:54:51;;;;;;;;;;;;;;;2.83;59.34;100845.97;4454910;32;20008;-83
2022/01/29 03:57:16;;;;;;;;;;;;;;;2.84;59.33;100847.69;4454665;32;27540;-83
2022/01/29 03:59:41;;;;;;;;;;;;;;;2.90;59.34;100846.09;4468692;32;28931;-82
2022/01/29 04:02:07;;;;;;;;;;;;;;;2.98;59.34;100851.38;4469426;32;20023;-82
2022/01/29 04:04:32;;;;;;;;;;;;;;;2.96;59.34;100853.06;4454481;32;26231;-82
2022/01/29 04:07:04;;;;;;;;;;;;;;;3.00;59.34;100859.97;4454330;32;30550;-83
2022/01/29 04:09:29;;;;;;;;;;;;;;;3.14;59.35;100855.91;4454906;32;19969;-82
2022/01/29 04:11:55;;;;;;;;;;;;;;;3.02;59.35;100854.00;4454336;32;31209;-82
2022/01/29 04:14:20;;;;;;;;;;;;;;;2.99;59.34;100866.81;4455011;32;20369;-82
2022/01/29 04:16:45;;;;;;;;;;;;;;;3.11;59.35;100863.59;4469306;32;20040;-83
2022/01/29 04:19:11;;;;;;;;;;;;;;;3.08;59.34;100854.13;4469271;32;19973;-82
2022/01/29 04:21:36;;;;;;;;;;;;;;;3.20;59.36;100855.16;4454952;32;20045;-83
2022/01/29 04:24:01;;;;;;;;;;;;;;;3.12;59.35;100846.44;4454100;32;29758;-82
2022/01/29 04:26:33;;;;;;;;;;;;;;;3.12;59.35;100847.31;4469258;32;20020;-82
2022/01/29 04:28:58;;;;;;;;;;;;;;;3.20;59.36;100844.84;4455641;32;20817;-82
2022/01/29 04:31:23;;;;;;;;;;;;;;;3.16;59.36;100846.53;4468837;32;19983;-82
2022/01/29 04:33:48;;;;;;;;;;;;;;;3.28;59.36;100833.81;4468530;32;26874;-83
2022/01/29 04:36:14;;;;;;;;;;;;;;;3.31;59.36;100826.19;4468536;32;29667;-83
2022/01/29 04:38:39;;;;;;;;;;;;;;;3.47;59.38;100828.94;4468616;32;28183;-83
2022/01/29 04:41:04;;;;;;;;;;;;;;;3.42;59.36;100816.03;4468945;32;21114;-83
2022/01/29 04:43:33;;;;;;;;;;;;;;;3.47;59.37;100821.22;4454891;32;20350;-83
2022/01/29 04:45:59;;;;;;;;;;;;;;;3.48;59.37;100823.81;4454259;32;20632;-83
2022/01/29 04:48:24;;;;;;;;;;;;;;;3.50;59.37;100816.97;4469023;32;19991;-83
2022/01/29 04:50:49;;;;;;;;;;;;;;;3.56;59.38;100824.81;4468388;32;30999;-83
2022/01/29 04:53:14;;;;;;;;;;;;;;;3.50;59.37;100811.84;4468317;32;27621;-83
2022/01/29 04:55:40;;;;;;;;;;;;;;;3.43;59.37;100816.87;4468796;32;20368;-84
2022/01/29 04:58:05;;;;;;;;;;;;;;;3.56;59.37;100818.81;4469011;32;20011;-84
2022/01/29 05:00:31;;;;;;;;;;;;;;;3.27;59.36;100818.38;4441787;32;19980;-83
2022/01/29 05:03:04;;;;;;;;;;;;;;;3.12;59.35;100819.03;4454746;32;20003;-83
2022/01/29 05:05:29;;;;;;;;;;;;;;;3.15;59.35;100826.78;4441627;32;19996;-84
2022/01/29 05:07:54;;;;;;;;;;;;;;;3.26;59.36;100825.22;4453950;32;26020;-84
2022/01/29 05:10:21;;;;;;;;;;;;;;;3.32;59.37;100815.03;4453964;32;29379;-83
2022/01/29 05:12:59;;;;;;;;;;;;;;;3.56;59.37;100821.38;4454801;32;20035;-83
2022/01/29 05:28:45;;;;;;;;;;;;;;;3.60;59.37;100833.44;4468963;32;20754;-84
2022/01/29 05:31:10;;;;;;;;;;;;;;;3.64;59.38;100837.78;4468114;32;27522;-83
2022/01/29 05:33:35;;;;;;;;;;;;;;;3.51;59.37;100834.16;4453742;32;27367;-83
2022/01/29 05:36:00;;;;;;;;;;;;;;;3.67;59.37;100846.41;4453725;32;29281;-83
2022/01/29 05:38:27;;;;;;;;;;;;;;;3.63;59.38;100847.22;4453565;32;33753;-83
2022/01/29 05:40:53;;;;;;;;;;;;;;;3.69;59.39;100841.28;4454566;32;20026;-84
2022/01/29 05:43:18;;;;;;;;;;;;;;;3.77;59.39;100844.81;4468714;32;20020;-83
2022/01/29 05:45:43;;;;;;;;;;;;;;;3.74;59.38;100846.47;4468212;32;19977;-83
2022/01/29 05:48:08;;;;;;;;;;;;;;;3.82;59.38;100844.88;4453608;32;32278;-84
2022/01/29 05:50:33;;;;;;;;;;;;;;;3.69;59.39;100841.28;4467753;32;33320;-83
2022/01/29 05:52:59;;;;;;;;;;;;;;;3.65;59.38;100836.94;4467817;32;22043;-83
2022/01/29 05:55:24;;;;;;;;;;;;;;;3.64;59.38;100848.94;4416733;32;781265;-83
2022/01/29 05:57:49;;;;;;;;;;;;;;;3.74;59.38;100852.50;4453140;32;19988;-83
2022/01/29 06:00:15;;;;;;;;;;;;;;;3.64;59.38;100858.38;4468396;32;19996;-83
2022/01/29 06:02:40;;;;;;;;;;;;;;;3.83;59.40;100860.34;4453892;32;20007;-84
2022/01/29 06:05:06;;;;;;;;;;;;;;;3.91;59.40;100863.03;4467836;32;19997;-84
2022/01/29 06:07:31;;;;;;;;;;;;;;;3.84;59.39;100863.78;4453843;32;20038;-83
2022/01/29 06:09:56;;;;;;;;;;;;;;;3.88;59.39;100870.72;4453140;32;32991;-83
2022/01/29 06:12:21;;;;;;;;;;;;;;;3.77;59.39;100875.69;4467516;32;28305;-83
2022/01/29 06:14:46;;;;;;;;;;;;;;;3.97;59.40;100878.53;4453771;32;19989;-85
2022/01/29 06:17:12;;;;;;;;;;;;;;;3.67;59.38;100879.00;4467965;32;19984;-83
2022/01/29 06:19:37;;;;;;;;;;;;;;;3.64;59.38;100886.69;4467946;32;20361;-83
2022/01/29 06:22:08;;;;;;;;;;;;;;;3.53;59.38;100885.66;4467476;32;20042;-84
2022/01/29 06:24:33;;;;;;;;;;;;;;;3.89;59.39;100880.16;4454350;32;19997;-84
2022/01/29 06:26:58;;;;;;;;;;;;;;;4.00;59.40;100879.44;4453646;32;19999;-84
2022/01/29 06:29:23;;;;;;;;;;;;;;;3.77;59.39;100880.00;4453396;32;20349;-84
2022/01/29 06:31:49;;;;;;;;;;;;;;;3.73;59.39;100871.34;4467146;32;31790;-84
2022/01/29 06:34:14;;;;;;;;;;;;;;;3.94;59.40;100871.66;4453667;32;20236;-83
2022/01/29 06:36:39;;;;;;;;;;;;;;;3.95;59.40;100870.81;4467142;32;26698;-83
2022/01/29 06:39:05;;;;;;;;;;;;;;;3.87;59.39;100876.72;4467249;32;24554;-85
2022/01/29 06:41:30;;;;;;;;;;;;;;;4.01;59.40;100883.75;4467034;32;31081;-84
2022/01/29 06:43:55;;;;;;;;;;;;;;;4.18;59.41;100868.50;4467114;32;27965;-84
2022/01/29 06:46:20;;;;;;;;;;;;;;;4.19;59.41;100874.53;4467199;32;22958;-83
2022/01/29 06:48:45;;;;;;;;;;;;;;;4.37;59.43;100874.75;4467701;32;20345;-84
2022/01/29 06:51:11;;;;;;;;;;;;;;;4.11;59.41;100876.16;4467241;32;20706;-83
2022/01/29 06:53:36;;;;;;;;;;;;;;;4.29;59.42;100864.34;4439907;32;29958;-83
2022/01/29 06:56:01;;;;;;;;;;;;;;;4.30;59.42;100865.22;4467639;32;20037;-84
2022/01/29 06:58:26;;;;;;;;;;;;;;;4.57;59.44;100874.97;4466795;32;32558;-82
2022/01/29 07:00:52;;;;;;;;;;;;;;;4.58;59.44;100874.97;4467139;32;24986;-82
2022/01/29 07:03:17;;;;;;;;;;;;;;;4.45;59.43;100880.84;4466885;32;30728;-83
2022/01/29 07:05:42;;;;;;;;;;;;;;;4.43;59.43;100882.53;4466834;32;27069;-83
2022/01/29 07:08:07;;;;;;;;;;;;;;;4.38;59.42;100884.19;4453253;32;19993;-83
2022/01/29 07:10:33;;;;;;;;;;;;;;;4.31;59.42;100883.28;4469695;32;20360;-83
2022/01/29 07:12:58;;;;;;;;;;;;;;;4.30;59.42;100893.56;4469741;32;20365;-83
2022/01/29 07:15:23;;;;;;;;;;;;;;;4.25;59.41;100890.06;4455285;32;20340;-83
2022/01/29 07:17:48;;;;;;;;;;;;;;;4.29;59.42;100884.97;4469627;32;20030;-83
2022/01/29 07:20:14;;;;;;;;;;;;;;;4.30;59.42;100888.41;4454482;32;32961;-83
2022/01/29 07:22:39;;;;;;;;;;;;;;;4.39;59.42;100888.50;4469650;32;20274;-83
2022/01/29 07:25:05;;;;;;;;;;;;;;;4.49;59.42;100890.31;4469545;32;19995;-83
2022/01/29 07:27:30;;;;;;;;;;;;;;;4.47;59.42;100896.31;4469594;32;19973;-83
2022/01/29 07:29:55;;;;;;;;;;;;;;;4.52;59.43;100892.09;4469551;32;20035;-83
2022/01/29 07:32:20;;;;;;;;;;;;;;;4.28;59.42;100900.44;4469121;32;24667;-84
2022/01/29 07:34:46;;;;;;;;;;;;;;;4.37;59.43;100897.94;4442036;32;20698;-83
2022/01/29 07:37:11;;;;;;;;;;;;;;;4.55;59.43;100903.31;4469665;32;19989;-84
2022/01/29 07:39:36;;;;;;;;;;;;;;;4.61;59.44;100902.50;4468862;32;34355;-84
2022/01/29 07:42:01;;;;;;;;;;;;;;;4.69;59.44;100907.72;4442278;32;20025;-83
2022/01/29 07:44:27;;;;;;;;;;;;;;;4.79;59.45;100907.00;4469727;32;20241;-84
2022/01/29 07:46:52;;;;;;;;;;;;;;;4.83;59.45;100901.87;4469590;32;19985;-83
2022/01/29 07:49:17;;;;;;;;;;;;;;;4.72;59.44;100898.31;4469079;32;23500;-83
2022/01/29 07:51:42;;;;;;;;;;;;;;;4.72;59.45;100898.31;4454525;32;24583;-84
2022/01/29 07:54:08;;;;;;;;;;;;;;;4.81;59.45;100893.25;4469476;32;20032;-83
2022/01/29 07:56:33;;;;;;;;;;;;;;;4.94;59.46;100889.94;4455062;32;20105;-83
2022/01/29 07:58:58;;;;;;;;;;;;;;;4.94;59.46;100897.66;4469348;32;19980;-84
2022/01/29 08:01:24;;;;;;;;;;;;;;;5.01;59.46;100897.75;4469385;32;20348;-84
2022/01/29 08:03:50;;;;;;;;;;;;;;;5.16;59.46;100903.03;4454153;32;33872;-84
2022/01/29 08:06:16;;;;;;;;;;;;;;;5.29;59.47;100898.84;4469301;32;20052;-84
2022/01/29 08:08:41;;;;;;;;;;;;;;;5.19;59.47;100905.63;4469247;32;19985;-84
2022/01/29 08:11:07;;;;;;;;;;;;;;;5.10;59.46;100908.13;4468715;32;28321;-84
2022/01/29 08:13:33;;;;;;;;;;;;;;;5.03;59.46;100908.94;4442058;32;20297;-84
2022/01/29 08:15:58;;;;;;;;;;;;;;;5.26;59.48;100912.59;4454499;32;21830;-84
2022/01/29 08:18:23;;;;;;;;;;;;;;;5.42;59.48;100900.63;4441578;32;24239;-84
2022/01/29 08:20:48;;;;;;;;;;;;;;;5.42;59.48;100905.81;4454200;32;20008;-84
2022/01/29 08:23:13;;;;;;;;;;;;;;;5.50;59.48;100897.28;4454390;32;26949;-84
2022/01/29 08:25:39;;;;;;;;;;;;;;;5.64;59.50;100899.94;4468825;32;23928;-84
2022/01/29 08:28:04;;;;;;;;;;;;;;;5.61;59.49;100901.63;4454874;32;19989;-84
2022/01/29 08:30:29;;;;;;;;;;;;;;;5.53;59.49;100902.47;4469296;32;20270;-84
2022/01/29 08:32:54;;;;;;;;;;;;;;;5.65;59.50;100900.78;4454302;32;31402;-83
2022/01/29 08:35:20;;;;;;;;;;;;;;;5.60;59.49;100895.59;4454148;32;26552;-83
2022/01/29 08:37:46;;;;;;;;;;;;;;;5.68;59.50;100906.88;4469304;32;19989;-84
2022/01/29 08:40:11;;;;;;;;;;;;;;;5.89;59.51;100900.94;4454815;32;19992;-84
2022/01/29 08:42:36;;;;;;;;;;;;;;;5.99;59.52;100896.75;4455048;32;20097;-84
2022/01/29 08:45:02;;;;;;;;;;;;;;;6.00;59.51;100896.75;4469000;32;20298;-84
2022/01/29 08:47:27;;;;;;;;;;;;;;;6.06;59.52;100901.06;4468800;32;19976;-84
2022/01/29 08:49:52;;;;;;;;;;;;;;;6.11;59.51;100896.78;4469023;32;20025;-83
2022/01/29 08:52:18;;;;;;;;;;;;;;;6.01;59.52;100898.47;4453993;32;29254;-84
2022/01/29 08:54:43;;;;;;;;;;;;;;;5.82;59.50;100912.09;4468997;32;20399;-83
2022/01/29 08:57:08;;;;;;;;;;;;;;;5.75;59.49;100908.63;4454073;32;27925;-83
2022/01/29 08:59:33;;;;;;;;;;;;;;;5.60;59.49;100907.66;4468871;32;20017;-83
2022/01/29 09:01:59;;;;;;;;;;;;;;;5.44;59.48;100917.00;4468495;32;27069;-84
2022/01/29 09:04:24;;;;;;;;;;;;;;;5.48;59.49;100918.78;4454761;32;20025;-83
2022/01/29 09:06:49;;;;;;;;;;;;;;;5.48;59.48;100914.47;4468360;32;26277;-84
2022/01/29 09:09:20;;;;;;;;;;;;;;;5.46;59.49;100913.59;4469002;32;19984;-84
2022/01/29 09:11:45;;;;;;;;;;;;;;;5.81;59.50;100911.25;4469023;32;19993;-83
2022/01/29 09:14:10;;;;;;;;;;;;;;;5.86;59.50;100903.50;4441751;32;20000;-83
2022/01/29 09:16:35;;;;;;;;;;;;;;;5.69;59.50;100908.59;4454117;32;23115;-84
2022/01/29 09:19:01;;;;;;;;;;;;;;;5.78;59.50;100915.53;4468421;32;21342;-84
2022/01/29 09:21:26;;;;;;;;;;;;;;;5.84;59.51;100911.25;4468497;32;22400;-83
2022/01/29 09:23:55;;;;;;;;;;;;;;;5.79;59.50;100918.13;4468253;32;26690;-84
2022/01/29 09:26:21;;;;;;;;;;;;;;;6.08;59.52;100917.44;4454976;32;20651;-83
2022/01/29 09:28:46;;;;;;;;;;;;;;;6.18;59.52;100903.72;4453405;32;29940;-84
2022/01/29 09:31:11;;;;;;;;;;;;;;;6.33;59.53;100898.59;4453820;32;22970;-83
2022/01/29 09:33:36;;;;;;;;;;;;;;;6.41;59.53;100899.50;4453500;32;27449;-84
2022/01/29 09:36:02;;;;;;;;;;;;;;;6.42;59.54;100890.03;4468550;32;20023;-83
2022/01/29 09:38:27;;;;;;;;;;;;;;;6.61;59.55;100893.50;4454150;32;19992;-83
2022/01/29 09:40:52;;;;;;;;;;;;;;;6.57;59.54;100884.00;4454192;32;20040;-83
2022/01/29 09:43:17;;;;;;;;;;;;;;;6.49;59.54;100883.12;4453675;32;25393;-83
2022/01/29 09:45:43;;;;;;;;;;;;;;;6.53;59.54;100885.72;4468121;32;22469;-83
2022/01/29 09:48:08;;;;;;;;;;;;;;;6.49;59.54;100888.31;4454501;32;19996;-83
2022/01/29 09:50:37;;;;;;;;;;;;;;;6.48;59.54;100874.50;4454497;32;20023;-84
2022/01/29 09:53:03;;;;;;;;;;;;;;;6.36;59.54;100862.41;4468968;32;19969;-83
2022/01/29 09:55:29;;;;;;;;;;;;;;;6.41;59.54;100863.31;4454568;32;20076;-83
2022/01/29 09:57:54;;;;;;;;;;;;;;;6.90;59.57;100859.94;4468740;32;20000;-83
2022/01/29 10:00:19;;;;;;;;;;;;;;;6.97;59.57;100846.97;4468101;32;27269;-83
2022/01/29 10:02:44;;;;;;;;;;;;;;;6.64;59.56;100855.59;4454320;32;19980;-83
2022/01/29 10:05:12;;;;;;;;;;;;;;;6.82;59.56;100853.87;4453921;32;19993;-83
2022/01/29 10:07:37;;;;;;;;;;;;;;;6.96;59.57;100849.56;4454585;32;19988;-83
2022/01/29 10:10:06;;;;;;;;;;;;;;;6.89;59.57;100858.22;4453363;32;26907;-83
2022/01/29 10:12:31;;;;;;;;;;;;;;;6.92;59.56;100843.53;4453788;32;19996;-83
2022/01/29 10:15:00;;;;;;;;;;;;;;;7.00;59.57;100841.81;4453984;32;20019;-84
2022/01/29 10:17:41;;;;;;;;;;;;;;;6.91;59.57;100852.16;4453737;32;20413;-84
2022/01/29 10:20:07;;;;;;;;;;;;;;;7.07;59.57;100837.47;4453848;32;20059;-83
2022/01/29 10:22:34;;;;;;;;;;;;;;;7.08;59.57;100840.06;4453720;32;19985;-83
2022/01/29 10:24:59;;;;;;;;;;;;;;;7.22;59.58;100841.78;4453574;32;20015;-83
2022/01/29 10:27:24;;;;;;;;;;;;;;;7.36;59.59;100840.06;4468022;32;20317;-83
2022/01/29 10:29:57;;;;;;;;;;;;;;;7.46;59.59;100835.72;4452754;32;32571;-84
2022/01/29 10:32:26;;;;;;;;;;;;;;;7.52;59.60;100841.75;4453764;32;20622;-83
2022/01/29 10:34:53;;;;;;;;;;;;;;;7.53;59.60;100834.81;4467915;32;19992;-83
2022/01/29 10:37:19;;;;;;;;;;;;;;;7.58;59.60;100828.78;4468090;32;20002;-84
2022/01/29 10:39:45;;;;;;;;;;;;;;;7.36;59.59;100827.13;4453625;32;19969;-83
2022/01/29 10:42:14;;;;;;;;;;;;;;;7.37;59.59;100826.25;4453563;32;19994;-84
2022/01/29 10:44:43;;;;;;;;;;;;;;;7.58;59.60;100821.03;4469203;32;19996;-83
2022/01/29 10:47:09;;;;;;;;;;;;;;;7.57;59.61;100821.88;4455916;32;20004;-83
2022/01/29 10:49:35;;;;;;;;;;;;;;;7.36;59.59;100817.63;4469387;32;28192;-83
2022/01/29 10:52:09;;;;;;;;;;;;;;;7.29;59.59;100817.59;4469954;32;19973;-83
2022/01/29 10:54:38;;;;;;;;;;;;;;;7.24;59.58;100809.00;4455545;32;20359;-83
2022/01/29 10:57:06;;;;;;;;;;;;;;;6.86;59.56;100815.06;4469865;32;20560;-81
2022/01/29 10:59:32;;;;;;;;;;;;;;;6.98;59.57;100821.97;4469820;32;20030;-83
2022/01/29 11:01:58;;;;;;;;;;;;;;;6.97;59.57;100817.66;4455561;32;20053;-83
2022/01/29 11:04:26;;;;;;;;;;;;;;;7.03;59.58;100815.91;4455473;32;20024;-83
2022/01/29 11:06:51;;;;;;;;;;;;;;;7.04;59.58;100814.19;4455809;32;20008;-83
2022/01/29 11:09:16;;;;;;;;;;;;;;;7.29;59.59;100807.25;4455342;32;19995;-83
2022/01/29 11:11:42;;;;;;;;;;;;;;;7.50;59.60;100808.94;4454714;32;29050;-83
2022/01/29 11:14:08;;;;;;;;;;;;;;;7.30;59.59;100799.47;4455403;32;19981;-83
2022/01/29 11:16:33;;;;;;;;;;;;;;;7.22;59.58;100795.19;4455357;32;20040;-83
2022/01/29 11:18:58;;;;;;;;;;;;;;;7.31;59.58;100788.25;4454750;32;32335;-84
2022/01/29 11:21:24;;;;;;;;;;;;;;;7.46;59.59;100784.78;4469855;32;19969;-83
2022/01/29 11:23:49;;;;;;;;;;;;;;;7.50;59.60;100785.63;4455377;32;19996;-83
2022/01/29 11:26:14;;;;;;;;;;;;;;;7.45;59.60;100774.41;4469035;32;27845;-83
2022/01/29 11:28:39;;;;;;;;;;;;;;;7.55;59.61;100769.19;4468879;32;32080;-83
2022/01/29 11:31:11;;;;;;;;;;;;;;;7.45;59.60;100766.63;4469373;32;19993;-83
2022/01/29 11:33:55;;;;;;;;;;;;;;;7.52;59.60;100764.00;4469720;32;19988;-83
2022/01/29 11:36:20;;;;;;;;;;;;;;;7.62;59.61;100752.78;4469775;32;19981;-83
2022/01/29 11:38:45;;;;;;;;;;;;;;;7.61;59.61;100748.47;4454739;32;29451;-83
2022/01/29 11:41:11;;;;;;;;;;;;;;;7.88;59.62;100754.38;4469164;32;28835;-83
2022/01/29 11:43:37;;;;;;;;;;;;;;;7.98;59.62;100743.09;4442419;32;20083;-83
2022/01/29 11:46:11;;;;;;;;;;;;;;;8.08;59.64;100737.00;4442634;32;20000;-83
2022/01/29 11:48:51;;;;;;;;;;;;;;;8.09;59.64;100730.06;4443308;32;19976;-84
2022/01/29 11:51:36;;;;;;;;;;;;;;;8.05;59.62;100734.41;4456735;32;19990;-83
2022/01/29 11:54:01;;;;;;;;;;;;;;;8.26;59.64;100726.47;4469332;32;19996;-84
2022/01/29 11:56:31;;;;;;;;;;;;;;;8.23;59.64;100723.91;4453963;32;20007;-83
2022/01/29 11:59:15;;;;;;;;;;;;;;;8.16;59.64;100723.97;4469349;32;19973;-83
2022/01/29 12:01:40;;;;;;;;;;;;;;;8.16;59.64;100719.63;4469653;32;19969;-83
2022/01/29 12:04:06;;;;;;;;;;;;;;;8.21;59.64;100709.22;4469740;32;19988;-83
2022/01/29 12:06:34;;;;;;;;;;;;;;;8.23;59.64;100713.53;4442514;32;20001;-83
2022/01/29 12:11:32;;;;;;;;;;;;;;;8.29;59.65;100707.47;4469357;32;19981;-83
2022/01/29 12:14:12;;;;;;;;;;;;;;;8.14;59.63;100697.19;4469341;32;19984;-83
2022/01/29 12:16:49;;;;;;;;;;;;;;;8.39;59.66;100695.31;4469422;32;19980;-83
2022/01/29 12:19:33;;;;;;;;;;;;;;;8.48;59.65;100696.06;4469382;32;19976;-81
2022/01/29 12:22:06;;;;;;;;;;;;;;;8.52;59.66;100687.41;4469512;32;19981;-81
2022/01/29 12:24:32;;;;;;;;;;;;;;;8.51;59.66;100677.03;4455146;32;20293;-81
2022/01/29 12:26:57;;;;;;;;;;;;;;;8.59;59.67;100675.25;4455200;32;20007;-83
2022/01/29 12:29:22;;;;;;;;;;;;;;;8.55;59.66;100677.00;4469410;32;20024;-83
2022/01/29 12:31:52;;;;;;;;;;;;;;;8.73;59.67;100675.94;4455165;32;19996;-83
2022/01/29 12:34:17;;;;;;;;;;;;;;;8.67;59.67;100668.22;4469453;32;19996;-83
2022/01/29 12:36:43;;;;;;;;;;;;;;;8.90;59.69;100657.63;4455127;32;20033;-83
2022/01/29 12:39:09;;;;;;;;;;;;;;;8.83;59.68;100664.63;4469367;32;20012;-83
2022/01/29 12:41:38;;;;;;;;;;;;;;;8.75;59.68;100653.44;4455333;32;20337;-83
2022/01/29 12:44:08;;;;;;;;;;;;;;;8.72;59.67;100652.59;4455638;32;20337;-83
2022/01/29 12:46:33;;;;;;;;;;;;;;;8.62;59.66;100638.88;4454835;32;20052;-83
2022/01/29 12:49:02;;;;;;;;;;;;;;;8.83;59.68;100633.47;4454775;32;19999;-83
2022/01/29 12:51:27;;;;;;;;;;;;;;;8.70;59.67;100631.00;4469239;32;19973;-83
2022/01/29 12:53:59;;;;;;;;;;;;;;;8.72;59.67;100627.50;4454715;32;20112;-83
2022/01/29 12:56:34;;;;;;;;;;;;;;;8.82;59.68;100613.56;4454944;32;20375;-81
2022/01/29 12:59:00;;;;;;;;;;;;;;;8.70;59.67;100618.03;4468961;32;19972;-83